createdAt,value
2024-04-11T00:05:00.398Z,2.33
2024-04-11T00:10:09.009Z,1.73
2024-04-11T00:15:14.464Z,1.92
2024-04-11T00:20:21.000Z,1.80
2024-04-11T00:25:29.014Z,2.53
2024-04-11T00:30:34.334Z,2.15
2024-04-11T00:35:39.741Z,2.00
2024-04-11T00:40:56.662Z,2.00
2024-04-11T00:46:02.521Z,1.80
2024-04-11T00:51:09.245Z,2.22
2024-04-11T00:56:18.377Z,1.70
2024-04-11T01:01:23.811Z,1.75
2024-04-11T01:06:29.181Z,1.80
2024-04-11T01:11:37.255Z,1.75
2024-04-11T01:16:42.613Z,1.83
2024-04-11T01:21:48.071Z,2.20
2024-04-11T01:26:57.616Z,1.85
2024-04-11T01:32:04.643Z,1.73
2024-04-11T01:37:10.066Z,1.80
2024-04-11T01:42:19.394Z,1.70
2024-04-11T01:47:24.805Z,1.90
2024-04-11T01:52:30.236Z,2.13
2024-04-11T01:57:38.659Z,1.65
2024-04-11T02:02:46.146Z,1.80
2024-04-11T02:07:51.604Z,1.40
2024-04-11T02:13:02.417Z,1.88
2024-04-11T02:18:08.642Z,1.55
2024-04-11T02:23:14.319Z,1.70
2024-04-11T02:28:23.156Z,1.40
2024-04-11T02:33:31.451Z,1.50
2024-04-11T02:38:37.023Z,1.45
2024-04-11T02:43:45.111Z,1.73
2024-04-11T02:48:51.903Z,1.48
2024-04-11T02:53:58.432Z,1.20
2024-04-11T02:59:06.517Z,1.42
2024-04-11T03:04:12.178Z,1.17
2024-04-11T03:09:19.484Z,1.55
2024-04-11T03:14:27.944Z,1.63
2024-04-11T03:19:33.458Z,1.25
2024-04-11T03:24:39.651Z,1.23
2024-04-11T03:29:47.723Z,1.42
2024-04-11T03:34:53.174Z,1.20
2024-04-11T03:39:59.151Z,1.33
2024-04-11T03:45:12.695Z,1.50
2024-04-11T03:50:18.396Z,1.65
2024-04-11T03:55:23.754Z,1.42
2024-04-11T04:00:32.067Z,1.20
2024-04-11T04:05:37.525Z,1.27
2024-04-11T04:10:42.947Z,1.17
2024-04-11T04:15:51.250Z,1.30
2024-04-11T04:21:00.405Z,1.50
2024-04-11T04:26:07.096Z,1.17
2024-04-11T04:31:19.374Z,1.17
2024-04-11T04:36:27.467Z,1.35
2024-04-11T04:41:33.845Z,1.55
2024-04-11T04:46:42.912Z,1.30
2024-04-11T04:51:48.813Z,1.30
2024-04-11T04:56:55.068Z,1.25
2024-04-11T05:02:05.075Z,1.60
2024-04-11T05:07:15.576Z,1.40
2024-04-11T05:12:21.244Z,1.30
2024-04-11T05:17:29.301Z,1.25
2024-04-11T05:22:37.393Z,1.38
2024-04-11T05:27:44.015Z,1.45
2024-04-11T05:32:52.137Z,1.20
2024-04-11T05:37:57.531Z,1.42
2024-04-11T05:43:02.893Z,1.40
2024-04-11T05:48:12.456Z,1.40
2024-04-11T05:53:18.122Z,1.50
2024-04-11T05:58:23.477Z,1.10
2024-04-11T06:03:32.292Z,1.55
2024-04-11T06:08:37.817Z,1.38
2024-04-11T06:13:43.356Z,1.60
2024-04-11T06:18:55.956Z,1.30
2024-04-11T06:24:06.701Z,1.23
2024-04-11T06:29:13.348Z,1.30
2024-04-11T06:34:21.946Z,1.48
2024-04-11T06:39:27.668Z,1.23
2024-04-11T06:44:33.579Z,1.50
2024-04-11T06:49:43.061Z,1.35
2024-04-11T06:54:48.513Z,1.50
2024-04-11T06:59:53.930Z,1.58
2024-04-11T07:05:03.170Z,1.27
2024-04-11T07:10:16.850Z,1.60
2024-04-11T07:15:24.595Z,1.95
2024-04-11T07:20:37.200Z,1.30
2024-04-11T07:25:42.904Z,1.30
2024-04-11T07:30:48.341Z,1.77
2024-04-11T07:35:56.685Z,1.58
2024-04-11T07:41:17.978Z,1.70
2024-04-11T07:46:24.127Z,1.45
2024-04-11T07:51:32.111Z,1.42
2024-04-11T07:56:37.465Z,1.23
2024-04-11T08:01:42.842Z,1.27
2024-04-11T08:06:51.070Z,1.45
2024-04-11T08:11:56.536Z,1.50
2024-04-11T08:17:02.109Z,1.40
2024-04-11T08:22:10.179Z,1.80
2024-04-11T08:27:16.880Z,1.75
2024-04-11T08:32:23.875Z,1.55
2024-04-11T08:37:32.322Z,1.42
2024-04-11T08:42:38.034Z,1.80
2024-04-11T08:47:43.786Z,1.63
2024-04-11T08:52:55.327Z,1.33
2024-04-11T08:58:01.086Z,1.20
2024-04-11T09:03:07.275Z,1.20
2024-04-11T09:08:19.438Z,1.33
2024-04-11T09:13:26.443Z,1.40
2024-04-11T09:18:32.048Z,1.60
2024-04-11T09:23:48.975Z,1.42
2024-04-11T09:28:55.349Z,1.80
2024-04-11T09:34:02.191Z,1.52
2024-04-11T09:39:14.725Z,1.85
2024-04-11T09:44:32.823Z,1.77
2024-04-11T09:49:38.770Z,1.90
2024-04-11T09:54:47.853Z,1.73
2024-04-11T09:59:53.343Z,1.60
2024-04-11T10:05:00.749Z,1.50
2024-04-11T10:10:09.252Z,1.50
2024-04-11T10:15:20.092Z,1.58
2024-04-11T10:20:25.726Z,1.70
2024-04-11T10:25:34.697Z,1.65
2024-04-11T10:30:41.900Z,1.60
2024-04-11T10:35:48.267Z,2.00
2024-04-11T10:40:57.478Z,1.70
2024-04-11T10:46:06.900Z,1.70
2024-04-11T10:51:12.467Z,1.75
2024-04-11T10:56:26.238Z,1.80
2024-04-11T11:01:31.778Z,1.70
2024-04-11T11:06:48.981Z,1.98
2024-04-11T11:11:57.176Z,1.95
2024-04-11T11:17:03.487Z,2.15
2024-04-11T11:22:08.824Z,1.90
2024-04-11T11:27:22.146Z,2.10
2024-04-11T11:32:27.761Z,2.33
2024-04-11T11:37:33.527Z,2.17
2024-04-11T11:42:44.892Z,2.17
2024-04-11T11:47:51.391Z,2.03
2024-04-11T11:52:57.470Z,2.00
2024-04-11T11:58:06.836Z,2.05
2024-04-11T12:03:28.035Z,1.88
2024-04-11T12:08:40.871Z,1.90
2024-04-11T12:13:53.366Z,2.10
2024-04-11T12:18:59.988Z,1.83
2024-04-11T12:24:06.951Z,2.00
2024-04-11T12:29:15.189Z,2.08
2024-04-11T12:34:21.121Z,1.88
2024-04-11T12:39:34.625Z,1.83
2024-04-11T12:44:46.484Z,2.00
2024-04-11T12:49:51.979Z,2.17
2024-04-11T12:55:01.046Z,1.90
2024-04-11T13:00:31.977Z,2.15
2024-04-11T13:05:45.684Z,1.98
2024-04-11T13:10:56.616Z,2.17
2024-04-11T13:16:11.226Z,2.22
2024-04-11T13:21:32.976Z,1.98
2024-04-11T13:26:51.624Z,2.38
2024-04-11T13:31:59.738Z,2.10
2024-04-11T13:37:07.588Z,2.25
2024-04-11T13:42:15.192Z,2.30
2024-04-11T13:47:27.072Z,2.30
2024-04-11T13:52:34.071Z,2.60
2024-04-11T13:57:42.416Z,2.30
2024-04-11T14:03:00.421Z,2.17
2024-04-11T14:08:06.209Z,2.50
2024-04-11T14:13:16.319Z,2.70
2024-04-11T14:18:30.383Z,2.30
2024-04-11T14:23:48.560Z,2.80
2024-04-11T14:28:56.481Z,2.63
2024-04-11T14:34:20.416Z,2.88
2024-04-11T14:39:35.075Z,2.58
2024-04-11T14:44:46.021Z,2.22
2024-04-11T14:49:56.739Z,2.38
2024-04-11T14:55:10.929Z,2.42
2024-04-11T15:00:33.019Z,2.60
2024-04-11T15:05:41.112Z,2.13
2024-04-11T15:10:46.848Z,2.90
2024-04-11T15:16:00.762Z,2.80
2024-04-11T15:21:17.400Z,2.70
2024-04-11T15:26:28.559Z,2.97
2024-04-11T15:31:34.143Z,3.20
2024-04-11T15:36:54.009Z,2.67
2024-04-11T15:42:01.703Z,3.35
2024-04-11T15:47:07.739Z,3.05
2024-04-11T15:52:15.980Z,2.80
2024-04-11T15:57:21.845Z,2.50
2024-04-11T16:02:29.516Z,2.40
2024-04-11T16:07:37.593Z,2.63
2024-04-11T16:12:43.219Z,2.58
2024-04-11T16:17:51.286Z,3.30
2024-04-11T16:22:59.353Z,2.50
2024-04-11T16:28:09.369Z,2.80
2024-04-11T16:33:14.871Z,3.20
2024-04-11T16:38:37.365Z,3.03
2024-04-11T16:43:44.702Z,2.60
2024-04-11T16:48:55.003Z,2.72
2024-04-11T16:54:19.686Z,2.72
2024-04-11T16:59:33.128Z,2.85
2024-04-11T17:04:40.149Z,2.88
2024-04-11T17:09:55.494Z,3.00
2024-04-11T17:15:01.931Z,3.20
2024-04-11T17:20:20.585Z,3.28
2024-04-11T17:25:34.116Z,3.90
2024-04-11T17:31:01.915Z,3.80
2024-04-11T17:36:21.398Z,3.53
2024-04-11T17:41:37.959Z,3.53
2024-04-11T17:47:12.808Z,3.20
2024-04-11T17:52:28.458Z,3.00
2024-04-11T17:57:42.736Z,4.47
2024-04-11T18:02:50.879Z,3.40
2024-04-11T18:08:04.382Z,2.85
2024-04-11T18:13:18.290Z,2.50
2024-04-11T18:18:25.933Z,2.50
2024-04-11T18:23:31.597Z,3.00
2024-04-11T18:28:39.773Z,3.13
2024-04-11T18:33:49.254Z,2.47
2024-04-11T18:38:55.589Z,2.80
2024-04-11T18:44:09.787Z,3.05
2024-04-11T18:49:19.434Z,3.10
2024-04-11T18:54:25.972Z,3.28
2024-04-11T18:59:37.775Z,2.85
2024-04-11T19:04:46.245Z,2.33
2024-04-11T19:10:01.698Z,2.60
2024-04-11T19:15:12.467Z,2.88
2024-04-11T19:20:31.847Z,2.45
2024-04-11T19:25:39.318Z,3.08
2024-04-11T19:30:47.747Z,10.00
2024-04-11T19:35:56.352Z,3.70
2024-04-11T19:41:02.430Z,3.28
2024-04-11T19:46:13.411Z,3.35
2024-04-11T19:51:18.998Z,3.40
2024-04-11T19:56:29.664Z,3.40
2024-04-11T20:01:52.841Z,3.50
2024-04-11T20:07:06.916Z,3.63
2024-04-11T20:12:19.186Z,3.13
2024-04-11T20:17:34.899Z,3.30
2024-04-11T20:22:41.156Z,2.95
2024-04-11T20:27:48.860Z,3.38
2024-04-11T20:32:59.130Z,2.80
2024-04-11T20:38:17.417Z,4.30
2024-04-11T20:43:38.210Z,3.30
2024-04-11T20:49:07.173Z,2.97
2024-04-11T20:54:36.855Z,3.30
2024-04-11T20:59:58.075Z,3.78
2024-04-11T21:05:22.412Z,3.70
2024-04-11T21:10:43.762Z,3.90
2024-04-11T21:16:06.682Z,3.63
2024-04-11T21:21:30.615Z,3.63
2024-04-11T21:26:52.628Z,3.65
2024-04-11T21:32:13.878Z,3.22
2024-04-11T21:37:22.252Z,3.20
2024-04-11T21:42:29.141Z,3.50
2024-04-11T21:47:37.619Z,3.58
2024-04-11T21:52:52.136Z,3.28
2024-04-11T21:57:59.740Z,3.60
2024-04-11T22:03:08.808Z,4.72
2024-04-11T22:08:19.492Z,3.92
2024-04-11T22:13:26.628Z,4.15
2024-04-11T22:18:34.108Z,3.75
2024-04-11T22:23:46.033Z,3.63
2024-04-11T22:28:55.277Z,3.20
2024-04-11T22:34:01.078Z,3.67
2024-04-11T22:39:09.088Z,4.38
2024-04-11T22:44:17.799Z,4.20
2024-04-11T22:49:23.917Z,5.22
2024-04-11T22:54:32.534Z,4.90
2024-04-11T22:59:44.938Z,5.03
2024-04-11T23:05:00.855Z,4.93
2024-04-11T23:10:18.718Z,4.65
2024-04-11T23:15:26.215Z,4.88
2024-04-11T23:20:34.569Z,4.88
2024-04-11T23:25:42.928Z,4.68
2024-04-11T23:30:52.944Z,5.20
2024-04-11T23:36:05.626Z,4.18
2024-04-11T23:41:19.269Z,3.95
2024-04-11T23:46:34.164Z,3.95
2024-04-11T23:51:46.981Z,3.80
2024-04-11T23:57:04.346Z,4.10
